createdAt,value
2022-12-12T00:01:28.167Z,27.00
2022-12-12T00:03:57.901Z,24.17
2022-12-12T00:06:25.054Z,27.10
2022-12-12T00:08:54.452Z,30.40
2022-12-12T00:11:25.679Z,23.40
2022-12-12T00:13:53.147Z,25.17
2022-12-12T00:16:23.008Z,23.97
2022-12-12T00:18:49.646Z,30.30
2022-12-12T00:21:23.170Z,29.05
2022-12-12T00:23:49.991Z,24.30
2022-12-12T00:26:16.468Z,26.02
2022-12-12T00:28:43.010Z,27.37
2022-12-12T00:31:09.559Z,26.50
2022-12-12T00:33:36.090Z,28.40
2022-12-12T00:36:05.430Z,27.10
2022-12-12T00:38:34.640Z,29.63
2022-12-12T00:41:02.092Z,29.13
2022-12-12T00:43:30.997Z,25.08
2022-12-12T00:46:01.563Z,28.40
2022-12-12T00:48:31.320Z,29.40
2022-12-12T00:51:05.728Z,28.35
2022-12-12T00:53:32.276Z,27.10
2022-12-12T00:56:02.299Z,31.77
2022-12-12T00:58:30.280Z,30.60
2022-12-12T01:00:56.997Z,30.80
2022-12-12T01:03:23.596Z,24.73
2022-12-12T01:05:50.119Z,25.30
2022-12-12T01:08:19.130Z,30.20
2022-12-12T01:10:45.676Z,27.23
2022-12-12T01:13:14.503Z,25.13
2022-12-12T01:15:41.117Z,29.83
2022-12-12T01:18:07.699Z,30.20
2022-12-12T01:20:36.699Z,24.95
2022-12-12T01:23:05.486Z,27.23
2022-12-12T01:25:35.385Z,30.13
2022-12-12T01:28:01.951Z,27.02
2022-12-12T01:30:29.881Z,29.17
2022-12-12T01:32:56.892Z,30.50
2022-12-12T01:35:23.735Z,27.67
2022-12-12T01:37:52.877Z,27.83
2022-12-12T01:40:23.872Z,28.10
2022-12-12T01:42:51.484Z,30.53
2022-12-12T01:46:17.783Z,25.13
2022-12-12T01:48:54.839Z,29.42
2022-12-12T01:51:24.400Z,28.10
2022-12-12T01:54:24.276Z,25.95
2022-12-12T01:56:56.470Z,30.03
2022-12-12T01:59:29.733Z,29.88
2022-12-12T02:01:59.008Z,30.75
2022-12-12T02:04:27.944Z,33.20
2022-12-12T02:06:56.126Z,31.77
2022-12-12T02:09:25.396Z,32.00
2022-12-12T02:11:56.969Z,34.35
2022-12-12T02:14:31.910Z,31.23
2022-12-12T02:17:36.137Z,29.35
2022-12-12T02:20:30.004Z,27.60
2022-12-12T02:23:27.458Z,30.80
2022-12-12T02:26:28.155Z,27.15
2022-12-12T02:29:22.996Z,32.65
2022-12-12T02:31:58.524Z,30.58
2022-12-12T02:34:57.503Z,25.40
2022-12-12T02:37:44.340Z,29.73
2022-12-12T02:40:32.236Z,33.92
2022-12-12T02:43:17.025Z,31.50
2022-12-12T02:45:54.894Z,30.85
2022-12-12T02:48:52.372Z,32.22
2022-12-12T02:51:20.927Z,28.30
2022-12-12T02:53:52.259Z,29.25
2022-12-12T02:56:49.923Z,33.97
2022-12-12T02:59:32.628Z,31.35
2022-12-12T03:02:37.182Z,30.33
2022-12-12T03:06:01.250Z,31.63
2022-12-12T03:08:36.418Z,28.85
2022-12-12T03:11:08.316Z,31.88
2022-12-12T03:13:43.949Z,30.85
2022-12-12T03:16:35.181Z,29.77
2022-12-12T03:19:04.448Z,26.20
2022-12-12T03:21:30.908Z,28.38
2022-12-12T03:24:09.048Z,29.60
2022-12-12T03:26:59.420Z,26.77
2022-12-12T03:29:32.344Z,27.10
2022-12-12T03:32:07.677Z,29.83
2022-12-12T03:34:45.778Z,27.88
2022-12-12T03:37:22.202Z,28.70
2022-12-12T03:40:03.870Z,25.05
2022-12-12T03:42:43.996Z,29.45
2022-12-12T03:45:11.083Z,27.47
2022-12-12T03:47:57.044Z,25.10
2022-12-12T03:50:29.926Z,27.13
2022-12-12T03:52:59.432Z,29.50
2022-12-12T03:55:39.840Z,26.90
2022-12-12T03:58:15.370Z,32.37
2022-12-12T04:00:44.566Z,28.40
2022-12-12T04:03:20.010Z,31.15
2022-12-12T04:06:26.890Z,28.65
2022-12-12T04:09:20.022Z,33.35
2022-12-12T04:12:13.977Z,24.07
2022-12-12T04:15:24.869Z,26.42
2022-12-12T04:18:19.491Z,24.70
2022-12-12T04:21:23.568Z,29.15
2022-12-12T04:24:27.782Z,28.00
2022-12-12T04:27:04.088Z,32.57
2022-12-12T04:29:47.702Z,28.30
2022-12-12T04:32:23.187Z,21.25
2022-12-12T04:34:58.617Z,26.52
2022-12-12T04:37:44.402Z,24.83
2022-12-12T04:40:34.723Z,29.20
2022-12-12T04:43:14.569Z,28.60
2022-12-12T04:45:45.807Z,30.35
2022-12-12T04:48:19.288Z,24.27
2022-12-12T04:50:50.351Z,27.27
2022-12-12T04:53:23.985Z,30.27
2022-12-12T04:56:01.300Z,30.70
2022-12-12T04:58:30.620Z,28.05
2022-12-12T05:01:08.856Z,28.77
2022-12-12T05:03:44.661Z,29.05
2022-12-12T05:06:16.925Z,29.17
2022-12-12T05:08:46.376Z,24.83
2022-12-12T05:11:18.443Z,28.77
2022-12-12T05:13:45.414Z,25.23
2022-12-12T05:16:24.325Z,25.38
2022-12-12T05:18:51.087Z,23.97
2022-12-12T05:21:17.768Z,27.15
2022-12-12T05:23:47.039Z,29.85
2022-12-12T05:26:23.580Z,34.33
2022-12-12T05:28:50.948Z,29.73
2022-12-12T05:31:17.764Z,28.27
2022-12-12T05:33:44.500Z,26.02
2022-12-12T05:36:11.841Z,25.60
2022-12-12T05:38:38.763Z,24.92
2022-12-12T05:41:13.713Z,25.13
2022-12-12T05:43:42.491Z,28.60
2022-12-12T05:46:11.510Z,30.23
2022-12-12T05:48:38.239Z,28.13
2022-12-12T05:51:05.430Z,29.23
2022-12-12T05:53:32.854Z,30.02
2022-12-12T05:56:06.465Z,23.93
2022-12-12T05:58:33.031Z,23.77
2022-12-12T06:01:03.180Z,27.60
2022-12-12T06:03:30.545Z,29.33
2022-12-12T06:05:59.844Z,26.00
2022-12-12T06:08:28.762Z,25.63
2022-12-12T06:10:55.341Z,26.98
2022-12-12T06:13:22.066Z,27.95
2022-12-12T06:15:48.951Z,23.85
2022-12-12T06:18:18.555Z,30.23
2022-12-12T06:20:45.119Z,31.07
2022-12-12T06:23:16.513Z,23.90
2022-12-12T06:25:50.311Z,27.67
2022-12-12T06:28:19.088Z,24.67
2022-12-12T06:30:48.249Z,27.42
2022-12-12T06:33:14.838Z,26.03
2022-12-12T06:35:41.350Z,23.90
2022-12-12T06:38:08.257Z,26.40
2022-12-12T06:40:35.199Z,26.55
2022-12-12T06:43:01.738Z,22.13
2022-12-12T06:45:30.569Z,26.50
2022-12-12T06:47:59.354Z,26.10
2022-12-12T06:50:28.512Z,24.15
2022-12-12T06:52:55.168Z,24.90
2022-12-12T06:55:23.969Z,27.45
2022-12-12T06:57:50.709Z,26.00
2022-12-12T07:00:17.626Z,27.63
2022-12-12T07:02:46.464Z,27.08
2022-12-12T07:05:15.538Z,27.48
2022-12-12T07:07:42.274Z,26.00
2022-12-12T07:10:11.288Z,24.20
2022-12-12T07:12:40.274Z,29.73
2022-12-12T07:15:07.444Z,28.02
2022-12-12T07:17:34.028Z,23.15
2022-12-12T07:20:00.561Z,25.52
2022-12-12T07:22:29.384Z,23.53
2022-12-12T07:24:55.951Z,26.40
2022-12-12T07:27:22.527Z,28.58
2022-12-12T07:29:51.446Z,26.42
2022-12-12T07:32:18.108Z,29.17
2022-12-12T07:34:44.646Z,26.60
2022-12-12T07:37:13.619Z,28.50
2022-12-12T07:39:40.223Z,27.02
2022-12-12T07:42:09.006Z,29.35
2022-12-12T07:44:35.566Z,24.42
2022-12-12T07:47:02.178Z,28.43
2022-12-12T07:49:29.740Z,28.65
2022-12-12T07:51:56.351Z,26.27
2022-12-12T07:54:25.114Z,25.85
2022-12-12T07:56:51.644Z,30.38
2022-12-12T07:59:20.488Z,23.97
2022-12-12T08:01:49.453Z,27.73
2022-12-12T08:04:18.545Z,29.33
2022-12-12T08:06:45.209Z,30.60
2022-12-12T08:09:14.302Z,26.90
2022-12-12T08:11:46.636Z,24.97
2022-12-12T08:14:13.698Z,27.60
2022-12-12T08:16:41.257Z,25.80
2022-12-12T08:19:10.268Z,28.50
2022-12-12T08:21:38.882Z,26.83
2022-12-12T08:24:05.767Z,28.67
2022-12-12T08:26:35.092Z,26.88
2022-12-12T08:29:06.409Z,29.30
2022-12-12T08:31:35.595Z,25.92
2022-12-12T08:34:05.145Z,27.35
2022-12-12T08:36:35.431Z,25.57
2022-12-12T08:39:12.077Z,23.00
2022-12-12T08:41:42.911Z,24.77
2022-12-12T08:44:13.113Z,23.90
2022-12-12T08:46:42.513Z,25.70
2022-12-12T08:49:09.883Z,24.50
2022-12-12T08:51:42.641Z,26.77
2022-12-12T08:54:15.021Z,26.48
2022-12-12T08:56:46.426Z,23.48
2022-12-12T08:59:13.398Z,22.40
2022-12-12T09:01:47.414Z,24.77
2022-12-12T09:04:16.982Z,26.17
2022-12-12T09:06:45.731Z,26.40
2022-12-12T09:09:12.301Z,23.67
2022-12-12T09:11:40.975Z,22.02
2022-12-12T09:14:07.498Z,22.37
2022-12-12T09:16:36.352Z,23.13
2022-12-12T09:19:05.454Z,26.23
2022-12-12T09:21:32.171Z,23.02
2022-12-12T09:24:03.719Z,21.33
2022-12-12T09:26:32.610Z,21.77
2022-12-12T09:28:59.141Z,23.52
2022-12-12T09:31:29.105Z,22.20
2022-12-12T09:33:58.012Z,20.98
2022-12-12T09:36:24.625Z,20.92
2022-12-12T09:38:51.158Z,20.00
2022-12-12T09:41:20.452Z,22.05
2022-12-12T09:44:03.565Z,25.58
2022-12-12T09:46:37.517Z,22.60
2022-12-12T09:49:43.915Z,25.83
2022-12-12T09:52:17.706Z,23.97
2022-12-12T09:54:45.255Z,24.23
2022-12-12T09:57:15.591Z,22.48
2022-12-12T09:59:54.803Z,25.15
2022-12-12T10:02:52.224Z,21.80
2022-12-12T10:05:40.583Z,21.13
2022-12-12T10:08:34.625Z,21.58
2022-12-12T10:11:29.794Z,23.33
2022-12-12T10:14:01.719Z,24.58
2022-12-12T10:16:35.063Z,24.70
2022-12-12T10:19:10.346Z,22.30
2022-12-12T10:21:43.108Z,21.38
2022-12-12T10:24:45.477Z,24.85
2022-12-12T10:27:14.604Z,23.17
2022-12-12T10:29:48.705Z,24.90
2022-12-12T10:32:15.239Z,24.37
2022-12-12T10:35:01.749Z,22.02
2022-12-12T10:38:02.376Z,21.92
2022-12-12T10:40:47.034Z,21.35
2022-12-12T10:43:13.599Z,22.10
2022-12-12T10:45:54.777Z,25.37
2022-12-12T10:48:26.013Z,20.50
2022-12-12T10:50:57.707Z,23.30
2022-12-12T10:53:24.527Z,24.45
2022-12-12T10:55:59.428Z,18.58
2022-12-12T10:58:36.579Z,26.50
2022-12-12T11:01:45.058Z,21.60
2022-12-12T11:04:14.219Z,24.02
2022-12-12T11:06:47.127Z,23.65
2022-12-12T11:09:28.309Z,22.15
2022-12-12T11:12:10.073Z,22.03
2022-12-12T11:14:45.962Z,20.35
2022-12-12T11:17:31.719Z,22.80
2022-12-12T11:20:00.258Z,23.38
2022-12-12T11:22:28.193Z,24.95
2022-12-12T11:24:57.071Z,23.03
2022-12-12T11:27:25.870Z,26.30
2022-12-12T11:29:58.587Z,22.60
2022-12-12T11:32:37.964Z,22.35
2022-12-12T11:35:23.538Z,21.77
2022-12-12T11:37:56.026Z,23.97
2022-12-12T11:40:28.857Z,21.15
2022-12-12T11:43:14.423Z,20.90
2022-12-12T11:45:41.042Z,20.92
2022-12-12T11:48:34.632Z,20.25
2022-12-12T11:51:02.060Z,26.87
2022-12-12T11:53:29.369Z,20.48
2022-12-12T11:56:01.264Z,21.35
2022-12-12T11:58:46.686Z,18.52
2022-12-12T12:01:26.719Z,22.55
2022-12-12T12:04:05.913Z,22.13
2022-12-12T12:06:53.024Z,20.23
2022-12-12T12:09:28.815Z,25.25
2022-12-12T12:12:13.080Z,21.67
2022-12-12T12:14:55.443Z,22.58
2022-12-12T12:17:33.789Z,24.07
2022-12-12T12:20:32.717Z,20.50
2022-12-12T12:23:18.473Z,21.55
2022-12-12T12:25:50.981Z,20.90
2022-12-12T12:28:36.245Z,23.08
2022-12-12T12:31:27.425Z,24.87
2022-12-12T12:34:17.576Z,19.75
2022-12-12T12:37:25.846Z,21.48
2022-12-12T12:40:16.713Z,19.98
2022-12-12T12:43:08.855Z,20.85
2022-12-12T12:45:49.645Z,18.83
2022-12-12T12:48:37.406Z,20.92
2022-12-12T12:51:19.371Z,23.40
2022-12-12T12:54:05.812Z,18.65
2022-12-12T12:56:43.896Z,18.92
2022-12-12T12:59:18.642Z,19.03
2022-12-12T13:01:48.998Z,20.70
2022-12-12T13:04:31.845Z,19.20
2022-12-12T13:07:18.698Z,17.70
2022-12-12T13:10:08.070Z,20.08
2022-12-12T13:12:42.345Z,18.13
2022-12-12T13:15:24.393Z,19.42
2022-12-12T13:17:53.292Z,21.83
2022-12-12T13:20:23.180Z,21.02
2022-12-12T13:23:25.633Z,11.63
2022-12-12T13:26:06.564Z,15.97
2022-12-12T13:28:42.143Z,19.15
2022-12-12T13:31:37.026Z,20.00
2022-12-12T13:34:11.078Z,22.77
2022-12-12T13:36:43.172Z,20.98
2022-12-12T13:39:27.736Z,19.90
2022-12-12T13:42:04.424Z,19.30
2022-12-12T13:44:47.626Z,19.52
2022-12-12T13:47:23.404Z,20.42
2022-12-12T13:49:52.073Z,18.30
2022-12-12T13:52:27.916Z,12.00
2022-12-12T13:55:17.903Z,24.63
2022-12-12T13:57:59.946Z,16.95
2022-12-12T14:00:28.951Z,21.63
2022-12-12T14:03:07.830Z,22.48
2022-12-12T14:05:41.466Z,19.87
2022-12-12T14:08:10.662Z,16.15
2022-12-12T14:10:44.229Z,19.83
2022-12-12T14:13:22.885Z,21.60
2022-12-12T14:16:04.138Z,20.58
2022-12-12T14:18:55.911Z,18.40
2022-12-12T14:21:38.796Z,19.08
2022-12-12T14:24:33.361Z,19.35
2022-12-12T14:27:05.742Z,19.73
2022-12-12T14:29:39.987Z,24.27
2022-12-12T14:32:12.403Z,19.80
2022-12-12T14:35:20.492Z,17.95
2022-12-12T14:38:08.801Z,19.65
2022-12-12T14:40:44.686Z,21.55
2022-12-12T14:43:22.940Z,18.65
2022-12-12T14:45:52.136Z,17.50
2022-12-12T14:48:26.397Z,22.38
2022-12-12T14:51:09.463Z,19.88
2022-12-12T14:53:39.063Z,19.92
2022-12-12T14:56:31.845Z,19.60
2022-12-12T14:59:18.582Z,18.37
2022-12-12T15:01:46.683Z,17.92
2022-12-12T15:04:21.460Z,16.92
2022-12-12T15:06:55.087Z,22.52
2022-12-12T15:09:32.701Z,14.50
2022-12-12T15:12:13.898Z,18.07
2022-12-12T15:14:54.368Z,16.00
2022-12-12T15:17:26.780Z,18.17
2022-12-12T15:19:59.624Z,20.20
2022-12-12T15:22:32.318Z,18.92
2022-12-12T15:25:01.318Z,20.30
2022-12-12T15:27:48.088Z,21.30
2022-12-12T15:30:39.517Z,20.63
2022-12-12T15:33:28.067Z,20.17
2022-12-12T15:36:02.980Z,19.90
2022-12-12T15:38:32.784Z,17.13
2022-12-12T15:41:02.363Z,17.15
2022-12-12T15:43:32.785Z,17.77
2022-12-12T15:46:14.472Z,17.98
2022-12-12T15:48:50.625Z,18.90
2022-12-12T15:51:25.261Z,17.80
2022-12-12T15:53:56.120Z,17.88
2022-12-12T15:56:29.148Z,19.20
2022-12-12T15:59:07.179Z,16.83
2022-12-12T16:01:36.489Z,13.57
2022-12-12T16:04:06.496Z,17.57
2022-12-12T16:06:34.614Z,15.95
2022-12-12T16:09:07.451Z,17.13
2022-12-12T16:11:46.129Z,20.85
2022-12-12T16:14:24.839Z,14.65
2022-12-12T16:17:09.871Z,14.47
2022-12-12T16:19:41.353Z,17.30
2022-12-12T16:22:29.155Z,16.70
2022-12-12T16:25:10.119Z,19.25
2022-12-12T16:27:41.423Z,18.05
2022-12-12T16:30:09.469Z,22.30
2022-12-12T16:32:36.193Z,17.42
2022-12-12T16:35:03.668Z,17.90
2022-12-12T16:37:33.342Z,16.75
2022-12-12T16:39:59.968Z,19.10
2022-12-12T16:42:28.478Z,16.93
2022-12-12T16:44:54.987Z,14.88
2022-12-12T16:47:26.930Z,17.27
2022-12-12T16:49:57.994Z,22.90
2022-12-12T16:52:24.503Z,18.95
2022-12-12T16:54:54.141Z,18.63
2022-12-12T16:57:21.852Z,17.90
2022-12-12T16:59:48.487Z,17.70
2022-12-12T17:02:18.267Z,21.42
2022-12-12T17:04:50.106Z,18.50
2022-12-12T17:07:19.122Z,17.70
2022-12-12T17:09:45.687Z,19.50
2022-12-12T17:12:13.171Z,17.13
2022-12-12T17:14:41.968Z,12.85
2022-12-12T17:17:10.863Z,17.92
2022-12-12T17:19:37.420Z,18.93
2022-12-12T17:22:06.375Z,17.98
2022-12-12T17:24:32.955Z,17.95
2022-12-12T17:27:02.466Z,17.77
2022-12-12T17:29:29.045Z,19.02
2022-12-12T17:31:57.748Z,16.13
2022-12-12T17:34:24.354Z,16.33
2022-12-12T17:36:50.912Z,17.88
2022-12-12T17:39:20.076Z,15.32
2022-12-12T17:41:46.605Z,19.45
2022-12-12T17:44:13.145Z,15.40
2022-12-12T17:46:41.556Z,16.55
2022-12-12T17:49:10.168Z,16.38
2022-12-12T17:51:39.306Z,16.95
2022-12-12T17:54:08.213Z,16.17
2022-12-12T17:56:39.567Z,17.03
2022-12-12T17:59:09.143Z,16.85
2022-12-12T18:01:35.963Z,20.15
2022-12-12T18:04:05.537Z,18.50
2022-12-12T18:06:36.204Z,16.02
2022-12-12T18:09:07.507Z,15.63
2022-12-12T18:11:35.667Z,19.52
2022-12-12T18:14:06.861Z,15.57
2022-12-12T18:16:35.489Z,18.75
2022-12-12T18:19:03.031Z,17.65
2022-12-12T18:21:59.673Z,20.30
2022-12-12T18:24:23.868Z,21.45
2022-12-12T18:26:54.533Z,17.25
2022-12-12T18:29:24.405Z,20.20
2022-12-12T18:31:51.253Z,19.50
2022-12-12T18:34:20.710Z,65.17
2022-12-12T18:36:49.942Z,30.73
2022-12-12T18:39:21.175Z,22.25
2022-12-12T18:41:50.185Z,17.27
2022-12-12T18:44:16.751Z,16.02
2022-12-12T18:46:49.104Z,16.80
2022-12-12T18:49:18.360Z,13.55
2022-12-12T18:51:47.030Z,18.52
2022-12-12T18:54:16.627Z,17.27
2022-12-12T18:56:45.295Z,17.80
2022-12-12T18:59:15.440Z,18.37
2022-12-12T19:01:44.579Z,17.38
2022-12-12T19:04:14.332Z,17.17
2022-12-12T19:06:44.430Z,20.88
2022-12-12T19:09:15.183Z,17.05
2022-12-12T19:11:42.440Z,18.27
2022-12-12T19:14:10.773Z,18.88
2022-12-12T19:16:39.596Z,18.92
2022-12-12T19:19:06.488Z,12.23
2022-12-12T19:21:40.675Z,13.82
2022-12-12T19:24:12.085Z,17.20
2022-12-12T19:26:43.955Z,18.20
2022-12-12T19:29:15.336Z,17.95
2022-12-12T19:31:42.369Z,13.93
2022-12-12T19:34:12.331Z,16.27
2022-12-12T19:36:39.330Z,19.10
2022-12-12T19:39:07.633Z,19.65
2022-12-12T19:41:35.532Z,17.58
2022-12-12T19:44:05.623Z,21.00
2022-12-12T19:46:33.277Z,18.58
2022-12-12T19:49:07.096Z,15.30
2022-12-12T19:51:36.032Z,18.80
2022-12-12T19:54:08.852Z,17.77
2022-12-12T19:56:40.603Z,15.85
2022-12-12T19:59:08.146Z,20.25
2022-12-12T20:01:36.749Z,17.57
2022-12-12T20:04:20.760Z,17.08
2022-12-12T20:06:50.453Z,17.70
2022-12-12T20:09:19.011Z,15.93
2022-12-12T20:11:45.949Z,16.77
2022-12-12T20:14:17.844Z,15.70
2022-12-12T20:16:47.130Z,17.48
2022-12-12T20:19:18.021Z,18.30
2022-12-12T20:22:03.306Z,18.58
2022-12-12T20:24:32.346Z,16.13
2022-12-12T20:26:59.702Z,19.43
2022-12-12T20:29:28.967Z,17.10
2022-12-12T20:32:00.227Z,13.70
2022-12-12T20:34:27.607Z,18.10
2022-12-12T20:36:55.857Z,19.75
2022-12-12T20:39:26.273Z,17.47
2022-12-12T20:41:57.510Z,17.90
2022-12-12T20:44:29.193Z,17.98
2022-12-12T20:46:59.866Z,17.42
2022-12-12T20:49:31.284Z,15.95
2022-12-12T20:51:59.166Z,17.03
2022-12-12T20:54:28.337Z,16.95
2022-12-12T20:56:55.827Z,19.00
2022-12-12T20:59:23.768Z,20.40
2022-12-12T21:01:53.973Z,20.55
2022-12-12T21:04:21.953Z,17.13
2022-12-12T21:06:51.526Z,15.57
2022-12-12T21:09:26.400Z,14.23
2022-12-12T21:11:59.940Z,17.08
2022-12-12T21:14:27.802Z,15.82
2022-12-12T21:16:56.708Z,17.20
2022-12-12T21:19:25.818Z,16.50
2022-12-12T21:21:53.216Z,18.52
2022-12-12T21:24:20.791Z,16.08
2022-12-12T21:26:50.619Z,17.88
2022-12-12T21:29:17.260Z,16.00
2022-12-12T21:31:52.136Z,16.08
2022-12-12T21:34:22.315Z,14.20
2022-12-12T21:36:55.761Z,18.23
2022-12-12T21:39:26.681Z,12.68
2022-12-12T21:41:53.418Z,18.43
2022-12-12T21:44:21.260Z,15.82
2022-12-12T21:46:53.221Z,17.63
2022-12-12T21:49:19.871Z,17.88
2022-12-12T21:51:46.522Z,14.95
2022-12-12T21:54:14.823Z,15.57
2022-12-12T21:56:48.911Z,14.00
2022-12-12T21:59:16.046Z,18.75
2022-12-12T22:01:45.281Z,15.02
2022-12-12T22:04:15.396Z,17.13
2022-12-12T22:06:45.023Z,14.70
2022-12-12T22:09:14.803Z,15.82
2022-12-12T22:11:49.793Z,15.05
2022-12-12T22:14:22.017Z,13.07
2022-12-12T22:16:49.293Z,7.15
2022-12-12T22:19:18.512Z,19.53
2022-12-12T22:21:47.293Z,12.10
2022-12-12T22:24:17.784Z,14.38
2022-12-12T22:26:47.120Z,15.82
2022-12-12T22:29:18.891Z,12.75
2022-12-12T22:31:46.101Z,14.13
2022-12-12T22:34:15.835Z,18.27
2022-12-12T22:36:43.621Z,16.02
2022-12-12T22:39:19.189Z,15.63
2022-12-12T22:41:48.051Z,13.98
2022-12-12T22:44:17.113Z,13.50
2022-12-12T22:46:48.087Z,13.73
2022-12-12T22:49:18.724Z,13.18
2022-12-12T22:51:45.764Z,17.92
2022-12-12T22:54:15.098Z,14.13
2022-12-12T22:56:42.329Z,14.80
2022-12-12T22:59:11.339Z,15.77
2022-12-12T23:01:40.447Z,14.27
2022-12-12T23:04:07.614Z,13.18
2022-12-12T23:06:35.950Z,13.45
2022-12-12T23:09:07.074Z,12.70
2022-12-12T23:11:34.618Z,13.48
2022-12-12T23:14:04.471Z,13.05
2022-12-12T23:16:31.406Z,14.15
2022-12-12T23:19:05.696Z,14.80
2022-12-12T23:21:33.657Z,17.03
2022-12-12T23:24:03.338Z,14.45
2022-12-12T23:26:34.202Z,14.20
2022-12-12T23:29:07.141Z,14.82
2022-12-12T23:31:38.064Z,14.20
2022-12-12T23:34:07.695Z,11.47
2022-12-12T23:36:38.251Z,12.43
2022-12-12T23:39:09.545Z,18.20
2022-12-12T23:41:36.856Z,14.35
2022-12-12T23:44:04.385Z,15.68
2022-12-12T23:46:32.287Z,16.30
2022-12-12T23:49:07.008Z,15.77
2022-12-12T23:51:36.333Z,19.60
2022-12-12T23:54:05.159Z,11.68
2022-12-12T23:56:34.880Z,13.73
2022-12-12T23:59:01.996Z,16.43
